Time;durP1;ratioP1;P1;durP2;ratioP2;P2;SDS_P1;SDS_P2;PMS_P1;PMS_P2;Temp;Humidity;BMP_temperature;BMP_pressure;BME280_temperature;BME280_humidity;BME280_pressure;Samples;Min_cycle;Max_cycle;Signal;HPM_P1;HPM_P2
2023/07/13 00:00:50;;;;;;;97.82;90.95;;;;;;;19.45;80.89;99843.58;1852591;77;25560;-63
2023/07/13 00:03:18;;;;;;;93.92;87.62;;;;;;;19.43;81.09;99848.06;1852700;77;25562;-63
2023/07/13 00:05:44;;;;;;;97.80;90.67;;;;;;;19.40;81.18;99848.23;1852518;77;29676;-63
2023/07/13 00:08:11;;;;;;;98.27;91.65;;;;;;;19.38;81.59;99847.83;1852638;77;25411;-63
2023/07/13 00:10:42;;;;;;;98.70;91.97;;;;;;;19.36;81.49;99846.64;1852769;77;25365;-63
2023/07/13 00:13:09;;;;;;;96.15;89.62;;;;;;;19.33;81.80;99848.77;1852707;77;25567;-63
2023/07/13 00:15:36;;;;;;;96.40;90.10;;;;;;;19.32;81.62;99846.59;1852830;77;25354;-63
2023/07/13 00:18:03;;;;;;;98.80;92.20;;;;;;;19.30;81.79;99842.07;1852803;77;27486;-63
2023/07/13 00:20:29;;;;;;;97.42;90.72;;;;;;;19.29;81.85;99839.14;1852731;77;25420;-63
2023/07/13 00:22:55;;;;;;;98.00;91.08;;;;;;;19.27;81.97;99835.19;1852789;77;25601;-63
2023/07/13 00:25:28;;;;;;;98.12;91.15;;;;;;;19.26;82.18;99839.89;1852716;77;25492;-63
2023/07/13 00:27:55;;;;;;;98.17;91.57;;;;;;;19.25;82.14;99836.94;1852818;77;25488;-63
2023/07/13 00:30:22;;;;;;;96.55;90.17;;;;;;;19.23;82.18;99837.31;1852748;77;27652;-63
2023/07/13 00:32:48;;;;;;;95.55;89.22;;;;;;;19.22;82.04;99832.20;1852787;77;25346;-64
2023/07/13 00:35:16;;;;;;;96.37;89.67;;;;;;;19.22;82.27;99829.47;1852799;77;25475;-63
2023/07/13 00:37:43;;;;;;;98.58;91.82;;;;;;;19.20;82.13;99831.80;1852748;77;25414;-62
2023/07/13 00:40:14;;;;;;;96.97;90.40;;;;;;;19.18;82.22;99828.66;1852803;77;25370;-63
2023/07/13 00:42:41;;;;;;;99.62;92.82;;;;;;;19.17;82.18;99827.88;1852806;77;27428;-63
2023/07/13 00:45:16;;;;;;;94.20;87.95;;;;;;;19.16;82.32;99829.62;1852651;77;25590;-64
2023/07/13 00:47:44;;;;;;;97.62;90.83;;;;;;;19.14;82.43;99827.26;1849820;77;25489;-62
2023/07/13 00:50:15;;;;;;;97.08;90.77;;;;;;;19.12;82.44;99825.48;1852689;77;25532;-62
2023/07/13 00:52:45;;;;;;;98.50;91.53;;;;;;;19.11;82.45;99826.64;1821868;77;25572;-62
2023/07/13 00:55:14;;;;;;;97.37;90.38;;;;;;;19.09;82.53;99819.39;1852832;77;27493;-63
2023/07/13 00:57:42;;;;;;;95.50;89.37;;;;;;;19.09;82.59;99826.23;1852845;77;25590;-63
2023/07/13 01:00:12;;;;;;;94.10;87.97;;;;;;;19.08;82.80;99827.98;1852764;77;25431;-64
2023/07/13 01:02:42;;;;;;;94.30;87.97;;;;;;;19.07;82.68;99826.39;1822284;77;25841;-63
2023/07/13 01:05:16;;;;;;;95.77;89.70;;;;;;;19.06;82.93;99829.73;1852839;77;25605;-64
2023/07/13 01:07:44;;;;;;;96.63;90.30;;;;;;;19.06;82.86;99828.95;1818115;77;27535;-64
2023/07/13 01:10:13;;;;;;;97.37;90.92;;;;;;;19.06;82.86;99835.80;1809200;79;25571;-64
2023/07/13 01:12:40;;;;;;;94.83;88.52;;;;;;;19.03;82.94;99838.14;1809426;79;25595;-64
2023/07/13 01:15:34;;;;;;;92.40;86.22;;;;;;;19.03;82.75;99835.96;1809225;79;25534;-64
2023/07/13 01:18:03;;;;;;;96.28;89.87;;;;;;;19.01;82.92;99834.97;1809300;79;25413;-64
2023/07/13 01:20:30;;;;;;;94.55;88.00;;;;;;;19.01;82.95;99838.30;1809394;79;27256;-64
2023/07/13 01:22:56;;;;;;;92.22;86.05;;;;;;;19.00;83.08;99838.08;1809169;79;27271;-64
2023/07/13 01:25:22;;;;;;;93.47;87.20;;;;;;;18.97;83.02;99838.27;1809220;79;25514;-64
2023/07/13 01:27:49;;;;;;;95.35;89.17;;;;;;;18.97;83.03;99840.22;1809320;79;25478;-64
2023/07/13 01:30:15;;;;;;;98.87;92.02;;;;;;;18.95;83.24;99832.94;1809375;79;25441;-64
2023/07/13 01:32:42;;;;;;;93.75;87.53;;;;;;;18.93;83.19;99835.27;1809252;79;27681;-64
2023/07/13 01:35:09;;;;;;;95.50;89.17;;;;;;;18.89;83.00;99841.31;1809143;79;25498;-64
2023/07/13 01:37:36;;;;;;;94.30;88.03;;;;;;;18.87;83.14;99839.54;1809239;79;25582;-64
2023/07/13 01:40:06;;;;;;;93.35;87.22;;;;;;;18.87;83.34;99840.91;1809265;79;25445;-64
2023/07/13 01:42:32;;;;;;;92.78;86.55;;;;;;;18.85;83.20;99850.88;1809295;79;25590;-63
2023/07/13 01:44:59;;;;;;;92.67;86.67;;;;;;;18.82;83.02;99849.66;1809199;79;27467;-63
2023/07/13 01:47:27;;;;;;;92.55;86.45;;;;;;;18.78;83.04;99850.19;1809197;79;25620;-63
2023/07/13 01:49:54;;;;;;;94.95;88.33;;;;;;;18.75;83.09;99864.63;1809222;79;25103;-63
2023/07/13 01:52:20;;;;;;;95.25;89.00;;;;;;;18.69;82.85;99871.59;1809165;79;25548;-63
2023/07/13 01:54:46;;;;;;;95.97;89.80;;;;;;;18.64;83.02;99865.88;1809288;79;25588;-63
2023/07/13 01:57:14;;;;;;;97.60;90.72;;;;;;;18.60;83.43;99864.26;1809229;79;27403;-65
2023/07/13 01:59:40;;;;;;;97.17;90.47;;;;;;;18.57;83.77;99863.63;1809165;79;25519;-63
2023/07/13 02:02:07;;;;;;;103.38;95.60;;;;;;;18.57;84.00;99868.52;1809184;79;25571;-63
2023/07/13 02:04:34;;;;;;;101.58;94.22;;;;;;;18.57;84.09;99863.63;1809157;79;26148;-64
2023/07/13 02:07:01;;;;;;;103.58;96.12;;;;;;;18.56;84.26;99863.41;1817477;77;25921;-63
2023/07/13 02:09:27;;;;;;;96.65;89.72;;;;;;;18.56;84.39;99865.59;1832331;78;27723;-63
2023/07/13 02:11:53;;;;;;;102.27;94.87;;;;;;;18.57;84.54;99860.89;1832181;78;25773;-64
2023/07/13 02:14:19;;;;;;;102.38;94.90;;;;;;;18.59;84.49;99860.73;1832326;78;29674;-63
2023/07/13 02:16:45;;;;;;;101.38;94.28;;;;;;;18.60;84.56;99860.15;1832298;78;25544;-63
2023/07/13 02:19:11;;;;;;;98.60;91.92;;;;;;;18.60;84.54;99865.03;1832390;78;25505;-63
2023/07/13 02:21:37;;;;;;;97.37;90.80;;;;;;;18.60;84.46;99869.14;1809179;78;27544;-63
2023/07/13 02:24:05;;;;;;;94.37;87.78;;;;;;;18.60;84.48;99875.99;1832201;78;25417;-63
2023/07/13 02:26:32;;;;;;;94.72;88.30;;;;;;;18.60;84.49;99873.25;1832283;78;25363;-63
2023/07/13 02:28:58;;;;;;;96.40;89.80;;;;;;;18.60;84.47;99880.10;1832324;78;27667;-67
2023/07/13 02:31:25;;;;;;;96.90;90.60;;;;;;;18.59;84.43;99885.95;1832320;78;25376;-63
2023/07/13 02:33:51;;;;;;;97.35;91.00;;;;;;;18.51;84.26;99885.09;1832359;78;27529;-63
2023/07/13 02:36:18;;;;;;;98.55;91.87;;;;;;;18.47;84.63;99887.78;1832172;78;27417;-63
2023/07/13 02:38:45;;;;;;;96.02;89.47;;;;;;;18.43;84.57;99889.67;1832295;78;25576;-63
2023/07/13 02:41:12;;;;;;;95.17;89.05;;;;;;;18.41;84.96;99883.78;1832303;78;25549;-63
2023/07/13 02:43:40;;;;;;;94.40;88.12;;;;;;;18.39;84.93;99877.09;1832330;78;25454;-63
2023/07/13 02:46:09;;;;;;;92.82;86.72;;;;;;;18.41;84.98;99876.16;1832299;77;27479;-64
2023/07/13 02:48:37;;;;;;;95.65;89.45;;;;;;;18.41;85.14;99883.78;1832340;78;25574;-63
2023/07/13 02:51:05;;;;;;;98.27;91.78;;;;;;;18.41;85.36;99881.64;1832453;78;25592;-63
2023/07/13 02:53:32;;;;;;;96.87;90.28;;;;;;;18.41;85.22;99883.78;1809025;78;25455;-63
2023/07/13 02:55:59;;;;;;;95.42;89.15;;;;;;;18.42;85.46;99874.98;1832273;78;25574;-62
2023/07/13 02:58:25;;;;;;;95.35;88.87;;;;;;;18.42;85.44;99871.69;1832300;78;27526;-61
2023/07/13 03:00:52;;;;;;;96.95;90.60;;;;;;;18.42;85.46;99869.50;1832172;78;25408;-62
2023/07/13 03:03:18;;;;;;;100.33;93.30;;;;;;;18.44;85.54;99871.31;1832231;78;25511;-60
2023/07/13 03:05:49;;;;;;;95.05;88.90;;;;;;;18.44;85.49;99871.31;1832207;78;25617;-61
2023/07/13 03:08:14;;;;;;;;;;;;;;;18.45;85.58;99870.14;1849094;77;25820;-61
2023/07/13 03:10:40;;;;;;;95.42;89.00;;;;;;;18.45;85.57;99873.66;1852634;77;28028;-61
2023/07/13 03:13:06;;;;;;;95.00;88.27;;;;;;;18.44;85.28;99872.69;1852600;77;25615;-59
2023/07/13 03:15:33;;;;;;;94.50;88.35;;;;;;;18.41;85.37;99871.47;1852682;77;28708;-59
2023/07/13 03:17:59;;;;;;;98.42;91.80;;;;;;;18.42;85.24;99877.72;1821869;77;25549;-61
2023/07/13 03:20:26;;;;;;;93.52;87.37;;;;;;;18.39;85.09;99874.35;1852668;77;25533;-58
2023/07/13 03:22:52;;;;;;;93.62;87.35;;;;;;;18.39;85.19;99878.46;1852633;77;28443;-59
2023/07/13 03:25:18;;;;;;;93.72;87.42;;;;;;;18.40;85.32;99874.58;1852549;77;33219;-60
2023/07/13 03:27:44;;;;;;;94.42;88.07;;;;;;;18.39;85.22;99871.61;1852631;77;25565;-60
2023/07/13 03:30:13;;;;;;;92.78;86.82;;;;;;;18.39;85.25;99875.72;1852625;77;25446;-59
2023/07/13 03:32:39;;;;;;;93.83;87.37;;;;;;;18.38;85.43;99874.94;1795257;77;25627;-60
2023/07/13 03:35:08;;;;;;;96.37;89.83;;;;;;;18.37;85.46;99870.64;1852622;77;27424;-59
2023/07/13 03:37:34;;;;;;;95.28;88.75;;;;;;;18.36;85.34;99871.02;1852730;77;25497;-59
2023/07/13 03:40:01;;;;;;;96.17;89.72;;;;;;;18.35;85.58;99872.94;1852709;77;25339;-60
2023/07/13 03:42:27;;;;;;;95.45;89.07;;;;;;;18.35;85.66;99874.90;1852682;77;25536;-63
2023/07/13 03:44:53;;;;;;;93.67;87.55;;;;;;;18.36;85.76;99865.54;1852741;77;25358;-68
2023/07/13 03:47:19;;;;;;;93.58;87.57;;;;;;;18.39;85.92;99856.55;1852846;77;27521;-67
2023/07/13 03:49:46;;;;;;;92.55;86.42;;;;;;;18.37;85.79;99859.69;1852717;77;27239;-68
2023/07/13 03:52:13;;;;;;;95.60;89.50;;;;;;;18.38;85.89;99862.63;1852890;77;25540;-65
2023/07/13 03:54:39;;;;;;;92.82;86.70;;;;;;;18.38;86.17;99858.52;1821933;77;26103;-66
2023/07/13 03:57:08;;;;;;;90.57;84.70;;;;;;;18.42;86.36;99853.08;1852944;77;25533;-66
2023/07/13 03:59:34;;;;;;;89.03;82.60;;;;;;;18.46;86.52;99853.34;1852980;77;28102;-66
2023/07/13 04:02:04;;;;;;;94.17;87.90;;;;;;;18.47;86.24;99847.27;1853005;77;25448;-68
2023/07/13 04:04:31;;;;;;;91.78;85.92;;;;;;;18.50;86.30;99849.27;1853189;77;25587;-68
2023/07/13 04:06:58;;;;;;;95.95;89.62;;;;;;;18.53;86.24;99852.64;1851860;77;26513;-69
2023/07/13 04:09:25;;;;;;;97.40;90.72;;;;;;;18.55;86.24;99850.31;1832813;78;25446;-68
2023/07/13 04:11:51;;;;;;;97.57;91.17;;;;;;;18.60;86.35;99862.30;1832650;78;27634;-68
2023/07/13 04:14:19;;;;;;;95.22;89.07;;;;;;;18.67;87.08;99856.11;1832323;78;25839;-68
2023/07/13 04:16:45;;;;;;;93.05;86.78;;;;;;;18.75;87.67;99862.48;1832390;78;25427;-68
2023/07/13 04:19:12;;;;;;;94.55;87.75;;;;;;;18.83;87.90;99864.94;1832424;78;26139;-69
2023/07/13 04:21:39;;;;;;;94.30;87.92;;;;;;;18.91;88.06;99874.01;1832445;78;25372;-68
2023/07/13 04:24:07;;;;;;;97.15;90.72;;;;;;;18.99;88.10;99876.26;1808782;78;27235;-63
2023/07/13 04:26:35;;;;;;;95.00;88.42;;;;;;;19.09;88.08;99883.02;1808769;78;25464;-63
2023/07/13 04:29:03;;;;;;;97.35;91.02;;;;;;;19.19;88.76;99887.81;1832468;77;25508;-67
2023/07/13 04:31:31;;;;;;;93.52;87.17;;;;;;;19.29;89.07;99892.61;1832650;78;26050;-67
2023/07/13 04:33:58;;;;;;;98.00;91.17;;;;;;;19.39;88.62;99890.55;1832436;78;25529;-67
2023/07/13 04:36:28;;;;;;;93.05;86.97;;;;;;;19.52;88.70;99903.97;1832374;78;27541;-64
2023/07/13 04:38:55;;;;;;;96.85;90.28;;;;;;;19.67;89.66;99900.17;1832283;78;25495;-64
2023/07/13 04:41:22;;;;;;;94.65;88.00;;;;;;;19.86;90.22;99904.64;1832394;78;25525;-64
2023/07/13 04:43:49;;;;;;;95.57;89.17;;;;;;;20.03;90.18;99907.91;1832321;78;25488;-64
2023/07/13 04:46:18;;;;;;;94.28;87.78;;;;;;;20.19;89.35;99913.09;1808748;78;25398;-64
2023/07/13 04:48:45;;;;;;;94.55;88.05;;;;;;;20.32;89.28;99911.59;1832374;78;27427;-63
2023/07/13 04:51:11;;;;;;;96.10;89.28;;;;;;;20.47;89.42;99920.11;1808938;78;25519;-63
2023/07/13 04:53:38;;;;;;;94.22;87.72;;;;;;;20.62;89.02;99922.37;1832404;78;25396;-63
2023/07/13 04:56:05;;;;;;;95.32;88.80;;;;;;;20.77;89.01;99921.03;1809082;78;25969;-65
2023/07/13 04:58:33;;;;;;;95.53;88.47;;;;;;;20.89;88.51;99922.05;1832441;78;25543;-65
2023/07/13 05:01:05;;;;;;;95.95;89.37;;;;;;;21.00;87.92;99927.00;1832617;78;27431;-65
2023/07/13 05:03:32;;;;;;;90.65;84.55;;;;;;;21.07;87.08;99929.77;1832319;78;25485;-65
2023/07/13 05:06:02;;;;;;;96.85;90.00;;;;;;;21.16;86.73;99926.64;1832291;77;25382;-65
2023/07/13 05:08:29;;;;;;;92.27;85.87;;;;;;;;;;1830792;77;25595;-65
2023/07/13 05:10:55;;;;;;;93.12;86.80;;;;;;;21.35;86.00;99930.20;1832456;78;25518;-65
2023/07/13 05:13:23;;;;;;;92.60;86.35;;;;;;;21.44;85.93;99926.50;1832380;78;27503;-65
2023/07/13 05:15:59;;;;;;;94.85;88.35;;;;;;;21.52;85.75;99924.55;1832295;78;25370;-65
2023/07/13 05:18:26;;;;;;;93.00;86.70;;;;;;;21.60;85.55;99925.53;1832412;77;25604;-64
2023/07/13 05:21:04;;;;;;;93.97;87.90;;;;;;;21.69;85.14;99929.87;1832371;78;25464;-65
2023/07/13 05:23:32;;;;;;;96.42;89.50;;;;;;;21.74;84.83;99933.03;1740758;82;25813;-65
2023/07/13 05:26:00;;;;;;;96.20;89.72;;;;;;;21.82;84.52;99929.67;1740787;82;28440;-65
2023/07/13 05:28:31;;;;;;;95.03;88.60;;;;;;;21.88;84.15;99934.98;1710851;82;25531;-63
2023/07/13 05:30:58;;;;;;;95.45;89.10;;;;;;;21.93;83.87;99938.72;1718680;83;25526;-64
2023/07/13 05:33:25;;;;;;;93.90;87.50;;;;;;;21.99;83.67;99944.00;1755662;81;25628;-65
2023/07/13 05:35:51;;;;;;;95.95;88.82;;;;;;;22.05;83.25;99945.78;1718727;83;25613;-65
2023/07/13 05:38:18;;;;;;;94.03;87.40;;;;;;;22.09;83.06;99956.19;1755692;81;27414;-66
2023/07/13 05:40:46;;;;;;;95.38;88.62;;;;;;;22.14;82.91;99961.30;1718852;83;25546;-65
2023/07/13 05:43:14;;;;;;;94.60;88.10;;;;;;;22.20;82.97;99963.05;1755654;81;25583;-64
2023/07/13 05:45:41;;;;;;;96.20;89.37;;;;;;;22.28;82.62;99969.38;1718388;83;25649;-64
2023/07/13 05:48:07;;;;;;;96.47;89.45;;;;;;;22.35;82.20;99966.60;1755664;81;25661;-64
2023/07/13 05:50:33;;;;;;;93.37;87.00;;;;;;;22.42;82.06;99967.18;1718648;83;27547;-64
2023/07/13 05:52:59;;;;;;;95.30;88.65;;;;;;;22.48;82.01;99970.51;1725329;81;25531;-65
2023/07/13 05:55:26;;;;;;;91.30;85.07;;;;;;;22.56;82.20;99978.18;1728865;82;25655;-64
2023/07/13 05:57:52;;;;;;;92.25;86.10;;;;;;;22.67;82.21;99976.16;1740744;82;25530;-64
2023/07/13 06:00:19;;;;;;;90.57;84.45;;;;;;;22.80;81.89;99972.95;1774478;78;25577;-64
2023/07/13 06:02:46;;;;;;;89.85;83.85;;;;;;;22.88;81.27;99967.61;1812680;79;27297;-64
2023/07/13 06:05:12;;;;;;;94.50;87.97;;;;;;;23.01;80.86;99968.73;1812622;79;25458;-64
2023/07/13 06:07:38;;;;;;;90.42;84.58;;;;;;;23.13;80.62;99973.81;1787631;79;25775;-64
2023/07/13 06:10:07;;;;;;;91.15;85.25;;;;;;;23.27;80.00;99972.16;1780745;80;25618;-64
2023/07/13 06:12:33;;;;;;;90.42;84.10;;;;;;;23.41;79.62;99956.11;1808960;79;25620;-64
2023/07/13 06:14:59;;;;;;;93.65;86.97;;;;;;;23.52;79.05;99947.16;1832323;78;28200;-64
2023/07/13 06:17:25;;;;;;;93.00;86.25;;;;;;;23.64;78.33;99943.13;1832253;78;25545;-64
2023/07/13 06:19:51;;;;;;;89.32;83.27;;;;;;;23.72;77.98;99946.61;1787690;79;25485;-65
2023/07/13 06:22:17;;;;;;;87.78;81.82;;;;;;;23.83;78.19;99941.81;1812655;79;25595;-65
2023/07/13 06:24:43;;;;;;;88.27;82.42;;;;;;;24.02;77.64;99947.36;1787781;79;25412;-65
2023/07/13 06:27:10;;;;;;;85.67;80.03;;;;;;;24.10;76.10;99945.33;1812609;79;27482;-65
2023/07/13 06:29:36;;;;;;;84.70;79.12;;;;;;;24.14;74.95;99946.84;1812574;79;25381;-65
2023/07/13 06:32:03;;;;;;;86.30;80.85;;;;;;;24.13;73.78;99946.67;1780627;80;25496;-65
2023/07/13 06:34:29;;;;;;;84.13;78.92;;;;;;;24.13;73.27;99946.67;1808591;79;25554;-65
2023/07/13 06:36:57;;;;;;;83.10;78.05;;;;;;;24.13;72.41;99945.89;1832329;78;25556;-65
2023/07/13 06:39:23;;;;;;;81.15;76.20;;;;;;;24.12;71.19;99942.33;1832271;78;27580;-64
2023/07/13 06:41:49;;;;;;;81.67;76.75;;;;;;;24.17;71.21;99942.48;1812618;79;25615;-65
2023/07/13 06:44:15;;;;;;;83.15;78.12;;;;;;;24.25;71.42;99938.45;1756048;80;25540;-65
2023/07/13 06:46:41;;;;;;;81.90;77.08;;;;;;;24.33;71.36;99937.77;1808570;79;25538;-65
2023/07/13 06:49:10;;;;;;;83.85;78.72;;;;;;;24.41;69.88;99932.36;1832310;78;25366;-66
2023/07/13 06:51:37;;;;;;;80.60;75.97;;;;;;;24.48;69.16;99930.88;1808877;78;28321;-63
2023/07/13 06:54:05;;;;;;;84.30;79.30;;;;;;;24.50;69.08;99930.47;1832052;78;25739;-64
2023/07/13 06:56:32;;;;;;;79.85;74.92;;;;;;;24.61;68.93;99943.00;1832307;78;25534;-71
2023/07/13 06:59:00;;;;;;;38.13;35.83;;;;;;;24.77;68.33;99941.05;1832363;78;25552;-57
2023/07/13 07:01:26;;;;;;;78.90;74.07;;;;;;;24.96;66.63;99939.61;1832524;78;25521;-61
2023/07/13 07:03:52;;;;;;;34.45;32.03;;;;;;;25.14;66.34;99942.72;1832310;78;28451;-58
2023/07/13 07:06:25;;;;;;;11.15;8.15;;;;;;;25.32;65.58;99942.50;1808979;78;25679;-63
2023/07/13 07:08:53;;;;;;;75.87;71.80;;;;;;;25.53;63.75;99945.53;1841760;77;25235;-57
2023/07/13 07:11:23;;;;;;;76.37;72.15;;;;;;;25.68;62.10;99935.78;1852683;77;25630;-58
2023/07/13 07:13:52;;;;;;;77.27;73.07;;;;;;;25.84;60.56;99939.27;1852159;77;25539;-58
2023/07/13 07:16:20;;;;;;;77.12;72.90;;;;;;;25.99;60.05;99937.67;1852757;77;28135;-58
2023/07/13 07:18:47;;;;;;;79.62;74.77;;;;;;;26.12;59.26;99935.05;1821974;77;25561;-58
2023/07/13 07:21:15;;;;;;;78.05;73.52;;;;;;;26.31;59.12;99929.38;1852869;77;25484;-58
2023/07/13 07:23:44;;;;;;;80.97;76.30;;;;;;;26.56;58.73;99931.05;1852799;77;25436;-58
2023/07/13 07:26:11;;;;;;;80.28;75.55;;;;;;;26.76;58.10;99931.03;1852935;77;25373;-58
2023/07/13 07:28:38;;;;;;;78.72;74.17;;;;;;;26.94;57.46;99928.50;1851463;77;27554;-59
2023/07/13 07:31:05;;;;;;;79.30;74.70;;;;;;;27.10;57.15;99936.84;1820396;77;25820;-58
2023/07/13 07:33:34;;;;;;;77.50;72.90;;;;;;;27.29;56.91;99943.56;1851376;77;25723;-59
2023/07/13 07:36:04;;;;;;;75.05;70.47;;;;;;;27.44;55.22;99946.02;1851448;77;25707;-58
2023/07/13 07:38:31;;;;;;;77.10;72.80;;;;;;;27.51;53.53;99943.06;1852032;77;25774;-60
2023/07/13 07:40:58;;;;;;;76.17;71.85;;;;;;;27.57;53.02;99949.67;1851708;77;27475;-59
2023/07/13 07:43:24;;;;;;;73.80;69.45;;;;;;;27.64;52.74;99950.88;1852405;77;25418;-60
2023/07/13 07:45:50;;;;;;;71.05;67.17;;;;;;;27.72;52.35;99951.47;1852903;77;25418;-60
2023/07/13 07:48:16;;;;;;;74.40;70.25;;;;;;;27.91;52.18;99957.55;1852829;77;25417;-59
2023/07/13 07:50:44;;;;;;;73.17;68.80;;;;;;;28.14;52.28;99950.23;1803498;78;26037;-58
2023/07/13 07:53:12;;;;;;;71.53;67.27;;;;;;;28.34;52.65;99945.15;1733584;82;27729;-58
2023/07/13 07:55:39;;;;;;;78.57;74.30;;;;;;;28.59;50.76;99947.23;1717611;83;27408;-59
2023/07/13 07:58:07;;;;;;;78.97;74.32;;;;;;;28.64;50.10;99953.05;1717551;83;25585;-54
2023/07/13 08:00:35;;;;;;;74.58;70.22;;;;;;;28.74;49.16;99949.80;1690539;83;25541;-55
2023/07/13 08:03:04;;;;;;;73.77;69.67;;;;;;;28.83;49.55;99951.92;1715588;83;25422;-53
2023/07/13 08:05:30;;;;;;;9.85;5.87;;;;;;;29.02;49.37;99959.91;1715481;83;27489;-52
2023/07/13 08:07:58;;;;;;;7.13;5.67;;;;;;;29.08;49.11;99960.12;1715430;83;25433;-53
2023/07/13 08:10:24;;;;;;;6.50;5.42;;;;;;;29.08;48.39;99958.11;1715277;83;25582;-55
2023/07/13 08:12:50;;;;;;;9.00;6.47;;;;;;;29.15;48.87;99951.54;1715227;83;25523;-57
2023/07/13 08:15:21;;;;;;;7.30;5.10;;;;;;;29.36;48.94;99955.70;1715318;83;25446;-58
2023/07/13 08:17:49;;;;;;;13.03;5.50;;;;;;;29.43;47.48;99961.81;1715296;83;27456;-57
2023/07/13 08:20:18;;;;;;;6.37;5.20;;;;;;;29.40;45.35;99961.31;1715433;83;25605;-59
2023/07/13 08:22:46;;;;;;;6.62;5.30;;;;;;;29.20;45.63;99956.58;1715410;83;25526;-57
2023/07/13 08:25:15;;;;;;;6.70;5.30;;;;;;;29.26;46.34;99957.59;1715422;83;25503;-57
2023/07/13 08:27:41;;;;;;;7.30;6.70;;;;;;;29.47;46.68;99970.05;1715406;83;25621;-56
2023/07/13 08:30:10;;;;;;;7.97;7.17;;;;;;;29.46;45.53;99970.50;1715289;83;28087;-55
2023/07/13 08:32:39;;;;;;;9.03;6.70;;;;;;;29.36;45.93;99959.27;1715194;83;25516;-59
2023/07/13 08:35:07;;;;;;;7.35;6.65;;;;;;;29.36;46.25;99960.66;1715419;83;25478;-59
2023/07/13 08:37:34;;;;;;;8.33;6.45;;;;;;;29.62;46.77;99954.43;1691138;83;25529;-58
2023/07/13 08:40:12;;;;;;;7.97;6.50;;;;;;;29.94;46.86;99958.19;1715589;83;25640;-59
2023/07/13 08:42:58;;;;;;;9.25;7.30;;;;;;;30.13;46.10;99950.75;1715431;83;27705;-57
2023/07/13 08:45:39;;;;;;;7.20;6.55;;;;;;;30.25;45.13;99946.35;1715327;83;25628;-58
2023/07/13 08:48:19;;;;;;;8.50;6.97;;;;;;;30.46;45.67;99942.06;1714234;83;25596;-59
2023/07/13 08:50:51;;;;;;;7.25;6.00;;;;;;;30.84;45.27;99948.01;1715191;82;25680;-58
2023/07/13 08:53:20;;;;;;;9.03;6.25;;;;;;;31.12;44.70;99941.80;1722641;83;25632;-58
2023/07/13 08:55:46;;;;;;;7.75;6.55;;;;;;;31.38;44.44;99951.52;1723320;80;27510;-58
2023/07/13 08:58:16;;;;;;;6.37;5.78;;;;;;;31.70;44.39;99951.46;1723199;83;25855;-57
2023/07/13 09:01:09;;;;;;;8.43;5.62;;;;;;;32.08;43.60;99961.45;1723313;83;25463;-58
2023/07/13 09:04:08;;;;;;;8.13;6.67;;;;;;;32.32;42.50;99962.40;1723212;83;25536;-58
2023/07/13 09:06:55;;;;;;;8.18;7.00;;;;;;;32.37;41.82;99963.17;1723420;83;25585;-58
2023/07/13 09:09:48;;;;;;;7.12;5.97;;;;;;;32.28;41.15;99964.56;1722797;83;28178;-57
2023/07/13 09:12:37;;;;;;;9.30;6.53;;;;;;;32.07;40.84;99969.08;1723311;83;25551;-58
2023/07/13 09:15:05;;;;;;;8.63;6.87;;;;;;;31.72;41.06;99965.74;1722839;83;25577;-59
2023/07/13 09:17:40;;;;;;;8.73;7.50;;;;;;;31.44;40.92;99965.66;1693283;83;25630;-60
2023/07/13 09:20:23;;;;;;;8.90;7.55;;;;;;;31.18;40.50;99960.30;1722558;83;25406;-61
2023/07/13 09:22:51;;;;;;;9.00;7.60;;;;;;;30.84;41.03;99957.02;1723405;83;28116;-60
2023/07/13 09:25:34;;;;;;;9.53;8.00;;;;;;;30.69;41.97;99957.53;1723205;83;25398;-58
2023/07/13 09:28:06;;;;;;;8.10;7.30;;;;;;;30.76;42.15;99953.70;1723278;83;25417;-60
2023/07/13 09:30:57;;;;;;;8.25;7.45;;;;;;;30.86;42.25;99949.72;1710201;83;25533;-60
2023/07/13 09:33:28;;;;;;;9.80;7.28;;;;;;;31.10;42.52;99941.63;1723303;83;25594;-60
2023/07/13 09:35:52;;;;;;;7.78;7.08;;;;;;;31.33;41.38;99947.14;1722929;83;27627;-60
2023/07/13 09:38:22;;;;;;;8.48;7.37;;;;;;;31.35;41.24;99948.88;1723183;83;25603;-60
2023/07/13 09:41:25;;;;;;;9.63;8.55;;;;;;;31.23;40.93;99948.52;1723295;83;25402;-60
2023/07/13 09:44:11;;;;;;;7.37;5.83;;;;;;;31.24;41.07;99954.25;1723056;83;27694;-60
2023/07/13 09:46:45;;;;;;;5.70;3.67;;;;;;;31.16;40.33;99973.95;1723276;83;25414;-61
2023/07/13 09:49:13;;;;;;;5.70;3.17;;;;;;;30.80;39.48;99990.64;1721019;83;27837;-59
2023/07/13 09:51:44;;;;;;;5.15;3.50;;;;;;;30.31;38.72;99989.18;1723063;83;25411;-59
2023/07/13 09:54:24;;;;;;;3.72;3.22;;;;;;;29.89;38.76;99976.88;1723410;83;25434;-58
2023/07/13 09:57:00;;;;;;;6.05;3.40;;;;;;;29.46;38.90;99972.69;1723309;83;25573;-59
2023/07/13 09:59:34;;;;;;;4.08;2.98;;;;;;;28.99;39.24;99967.12;1723161;83;25417;-61
2023/07/13 10:02:02;;;;;;;3.77;3.05;;;;;;;28.65;39.87;99964.95;1723286;83;27465;-59
2023/07/13 10:04:33;;;;;;;6.90;3.22;;;;;;;28.33;40.30;99958.25;1723318;83;26077;-59
2023/07/13 10:07:15;;;;;;;6.78;3.42;;;;;;;28.10;40.82;99957.89;1723293;83;25502;-60
2023/07/13 10:09:41;;;;;;;4.35;3.00;;;;;;;27.94;41.09;99952.54;1723248;83;25545;-60
2023/07/13 10:12:18;;;;;;;5.25;3.10;;;;;;;27.82;41.55;99956.59;1723240;83;25605;-58
2023/07/13 10:14:47;;;;;;;6.05;3.10;;;;;;;27.85;41.76;99959.28;1723202;83;27543;-66
2023/07/13 10:17:16;;;;;;;13.88;4.53;;;;;;;27.78;41.78;99955.91;1723300;83;25569;-66
2023/07/13 10:19:45;;;;;;;6.45;3.15;;;;;;;27.62;42.09;99946.97;1692403;83;25426;-66
2023/07/13 10:22:29;;;;;;;9.90;3.20;;;;;;;27.41;42.22;99945.50;1723250;83;25582;-66
2023/07/13 10:24:58;;;;;;;3.98;3.15;;;;;;;27.18;42.54;99936.85;1721520;83;25406;-66
2023/07/13 10:27:30;;;;;;;8.75;3.72;;;;;;;26.98;42.76;99932.73;1692568;83;28194;-66
2023/07/13 10:30:25;;;;;;;5.85;2.92;;;;;;;26.81;43.17;99931.91;1722479;83;25438;-64
2023/07/13 10:32:52;;;;;;;3.45;3.15;;;;;;;26.66;43.50;99929.27;1723127;83;25568;-65
2023/07/13 10:35:22;;;;;;;4.25;2.83;;;;;;;26.52;43.97;99928.16;1723272;83;26069;-65
2023/07/13 10:37:58;;;;;;;5.72;2.90;;;;;;;26.40;44.25;99913.72;1687544;83;25482;-66
2023/07/13 10:40:29;;;;;;;6.67;2.87;;;;;;;26.33;44.76;99902.00;1723464;83;27481;-65
2023/07/13 10:43:02;;;;;;;2.80;2.58;;;;;;;26.31;45.56;99906.58;1722553;83;25729;-66
2023/07/13 10:45:33;;;;;;;4.60;2.90;;;;;;;26.29;45.58;99900.69;1723331;83;25386;-65
2023/07/13 10:48:03;;;;;;;5.72;2.85;;;;;;;26.29;45.58;99900.69;1723279;83;26325;-64
2023/07/13 10:50:31;;;;;;;;;;;;;;;26.20;45.55;99902.62;1725833;83;25416;-65
2023/07/13 10:53:23;;;;;;;6.37;3.90;;;;;;;26.13;45.93;99901.98;1723111;83;27573;-66
2023/07/13 10:55:55;;;;;;;3.05;2.83;;;;;;;26.03;46.04;99919.79;1721978;83;25411;-64
2023/07/13 10:58:29;;;;;;;6.45;2.92;;;;;;;25.93;46.18;99924.09;1723274;83;25615;-65
2023/07/13 11:01:23;;;;;;;4.08;3.20;;;;;;;25.82;46.21;99920.13;1723231;83;25658;-64
2023/07/13 11:04:03;;;;;;;3.72;3.22;;;;;;;25.70;46.33;99911.83;1721088;83;25581;-64
2023/07/13 11:06:45;;;;;;;5.60;3.20;;;;;;;25.57;46.50;99910.25;1697245;83;27285;-64
2023/07/13 11:09:34;;;;;;;3.45;2.60;;;;;;;25.43;46.46;99914.64;1720943;83;25603;-64
2023/07/13 11:12:26;;;;;;;3.25;2.92;;;;;;;25.27;46.79;99928.52;1721195;83;25592;-64
2023/07/13 11:15:06;;;;;;;4.90;3.42;;;;;;;25.11;47.34;99940.78;1721123;83;25572;-57
2023/07/13 11:17:50;;;;;;;;;;;;;;;24.98;47.45;99946.88;1699241;83;25733;-58
2023/07/13 11:20:21;;;;;;;4.22;2.80;;;;;;;24.89;48.58;99956.89;1708831;83;27413;-59
2023/07/13 11:23:11;;;;;;;5.45;2.98;;;;;;;24.74;49.90;99972.87;1713710;83;25661;-58
2023/07/13 11:25:38;;;;;;;9.70;3.27;;;;;;;24.58;51.02;99988.66;1712616;83;25453;-57
2023/07/13 11:28:13;;;;;;;6.30;3.52;;;;;;;24.35;51.65;100012.78;1733968;81;25426;-55
2023/07/13 11:30:57;;;;;;;4.55;3.42;;;;;;;24.14;52.45;100014.52;1777165;80;25546;-58
2023/07/13 11:33:42;;;;;;;6.67;4.10;;;;;;;23.98;53.35;100021.98;1777079;80;28043;-57